createdAt,value
2022-11-24T00:01:40.070Z,99321.53
2022-11-24T00:04:08.517Z,99321.94
2022-11-24T00:06:37.028Z,99328.59
2022-11-24T00:09:06.114Z,99327.38
2022-11-24T00:11:36.690Z,99325.06
2022-11-24T00:14:06.479Z,99322.31
2022-11-24T00:16:35.643Z,99330.25
2022-11-24T00:19:05.473Z,99327.66
2022-11-24T00:21:33.513Z,99325.22
2022-11-24T00:24:01.246Z,99337.63
2022-11-24T00:26:30.546Z,99322.69
2022-11-24T00:29:01.744Z,99329.63
2022-11-24T00:31:31.003Z,99335.53
2022-11-24T00:34:00.465Z,99336.38
2022-11-24T00:36:30.213Z,99341.66
2022-11-24T00:38:59.610Z,99348.41
2022-11-24T00:41:28.609Z,99344.47
2022-11-24T00:43:57.042Z,99352.69
2022-11-24T00:46:27.360Z,99349.56
2022-11-24T00:48:55.775Z,99349.06
2022-11-24T00:51:26.391Z,99345.31
2022-11-24T00:53:54.201Z,99352.38
2022-11-24T00:56:22.025Z,99354.66
2022-11-24T00:58:50.527Z,99357.44
2022-11-24T01:01:20.593Z,99360.56
2022-11-24T01:03:50.311Z,99358.44
2022-11-24T01:06:20.763Z,99359.56
2022-11-24T01:08:49.274Z,99360.06
2022-11-24T01:11:18.704Z,99366.66
2022-11-24T01:13:48.525Z,99368.44
2022-11-24T01:16:19.198Z,99377.31
2022-11-24T01:18:47.444Z,99373.19
2022-11-24T01:21:16.883Z,99373.19
2022-11-24T01:23:44.634Z,99380.41
2022-11-24T01:26:14.869Z,99372.72
2022-11-24T01:28:47.008Z,99375.34
2022-11-24T01:31:16.402Z,99385.19
2022-11-24T01:33:44.397Z,99388.78
2022-11-24T01:36:12.615Z,99385.19
2022-11-24T01:38:41.763Z,99385.19
2022-11-24T01:41:13.114Z,99394.69
2022-11-24T01:43:41.087Z,99391.41
2022-11-24T01:46:18.202Z,99394.19
2022-11-24T01:48:49.834Z,99395.00
2022-11-24T01:51:21.496Z,99400.41
2022-11-24T01:53:54.266Z,99404.69
2022-11-24T01:56:22.237Z,99407.47
2022-11-24T01:58:53.207Z,99405.66
2022-11-24T02:01:21.138Z,99404.19
2022-11-24T02:03:50.184Z,99399.09
2022-11-24T02:06:22.118Z,99406.81
2022-11-24T02:08:56.284Z,99414.03
2022-11-24T02:11:25.606Z,99408.94
2022-11-24T02:13:55.242Z,99414.19
2022-11-24T02:16:23.273Z,99412.38
2022-11-24T02:18:51.137Z,99422.88
2022-11-24T02:21:19.262Z,99424.53
2022-11-24T02:23:56.463Z,99424.53
2022-11-24T02:26:42.653Z,99429.13
2022-11-24T02:29:11.622Z,99426.66
2022-11-24T02:31:40.828Z,99429.94
2022-11-24T02:34:08.631Z,99429.13
2022-11-24T02:36:36.337Z,99436.34
2022-11-24T02:39:04.229Z,99445.19
2022-11-24T02:41:32.110Z,99447.81
2022-11-24T02:44:03.211Z,99447.16
2022-11-24T02:46:31.024Z,99448.81
2022-11-24T02:48:58.954Z,99447.97
2022-11-24T02:51:26.762Z,99456.00
2022-11-24T02:53:54.519Z,99464.69
2022-11-24T02:56:22.238Z,99460.28
2022-11-24T02:58:49.927Z,99461.78
2022-11-24T03:01:19.206Z,99457.97
2022-11-24T03:03:47.152Z,99461.44
2022-11-24T03:06:14.888Z,99469.00
2022-11-24T03:08:42.578Z,99465.53
2022-11-24T03:11:10.281Z,99461.94
2022-11-24T03:13:37.964Z,99458.16
2022-11-24T03:16:09.690Z,99472.78
2022-11-24T03:18:38.976Z,99478.53
2022-11-24T03:21:07.065Z,99484.13
2022-11-24T03:23:34.790Z,99483.78
2022-11-24T03:26:09.622Z,99489.53
2022-11-24T03:28:37.782Z,99484.13
2022-11-24T03:31:06.514Z,99487.91
2022-11-24T03:33:34.590Z,99491.22
2022-11-24T03:36:04.654Z,99491.06
2022-11-24T03:38:32.502Z,99500.56
2022-11-24T03:41:00.309Z,99497.63
2022-11-24T03:43:28.040Z,99497.81
2022-11-24T03:45:55.919Z,99505.88
2022-11-24T03:48:23.681Z,99496.50
2022-11-24T03:50:56.321Z,99502.09
2022-11-24T03:53:27.103Z,99501.59
2022-11-24T03:55:55.095Z,99509.03
2022-11-24T03:58:23.032Z,99502.75
2022-11-24T04:00:52.217Z,99507.69
2022-11-24T04:03:20.450Z,99512.63
2022-11-24T04:05:48.449Z,99511.16
2022-11-24T04:08:16.743Z,99515.75
2022-11-24T04:10:45.906Z,99508.00
2022-11-24T04:13:14.495Z,99519.34
2022-11-24T04:15:43.777Z,99510.78
2022-11-24T04:18:13.063Z,99522.63
2022-11-24T04:20:41.633Z,99517.19
2022-11-24T04:23:09.756Z,99525.41
2022-11-24T04:25:38.230Z,99516.34
2022-11-24T04:28:07.332Z,99524.59
2022-11-24T04:30:36.085Z,99515.72
2022-11-24T04:33:03.989Z,99525.88
2022-11-24T04:35:31.666Z,99528.50
2022-11-24T04:38:03.257Z,99531.78
2022-11-24T04:40:31.173Z,99527.97
2022-11-24T04:42:58.994Z,99528.63
2022-11-24T04:45:28.186Z,99541.13
2022-11-24T04:47:55.870Z,99543.47
2022-11-24T04:50:23.764Z,99551.19
2022-11-24T04:52:52.481Z,99547.75
2022-11-24T04:55:20.210Z,99550.88
2022-11-24T04:57:47.960Z,99551.56
2022-11-24T05:00:16.288Z,99554.03
2022-11-24T05:02:45.391Z,99553.69
2022-11-24T05:05:13.114Z,99560.91
2022-11-24T05:07:40.963Z,99553.69
2022-11-24T05:10:26.878Z,99552.22
2022-11-24T05:12:55.509Z,99560.41
2022-11-24T05:15:23.730Z,99563.88
2022-11-24T05:17:53.357Z,99567.47
2022-11-24T05:20:21.218Z,99574.38
2022-11-24T05:22:49.021Z,99579.66
2022-11-24T05:25:17.171Z,99587.53
2022-11-24T05:27:45.006Z,99587.53
2022-11-24T05:30:13.554Z,99596.09
2022-11-24T05:32:41.322Z,99601.19
2022-11-24T05:35:11.015Z,99599.72
2022-11-24T05:37:38.922Z,99601.50
2022-11-24T05:40:07.998Z,99598.91
2022-11-24T05:42:46.791Z,99603.13
2022-11-24T05:45:18.498Z,99606.59
2022-11-24T05:47:47.108Z,99600.50
2022-11-24T05:50:19.186Z,99609.38
2022-11-24T05:52:47.356Z,99610.72
2022-11-24T05:55:16.390Z,99619.06
2022-11-24T05:57:44.119Z,99617.56
2022-11-24T06:00:12.850Z,99622.38
2022-11-24T06:02:41.215Z,99612.31
2022-11-24T06:05:09.712Z,99622.00
2022-11-24T06:07:39.032Z,99621.69
2022-11-24T06:10:07.267Z,99624.63
2022-11-24T06:12:35.063Z,99621.66
2022-11-24T06:15:02.841Z,99625.59
2022-11-24T06:17:30.588Z,99629.69
2022-11-24T06:19:58.297Z,99632.81
2022-11-24T06:22:26.013Z,99631.50
2022-11-24T06:24:55.104Z,99631.78
2022-11-24T06:27:23.059Z,99634.94
2022-11-24T06:29:50.818Z,99648.41
2022-11-24T06:32:18.647Z,99644.09
2022-11-24T06:34:46.669Z,99658.59
2022-11-24T06:37:14.392Z,99656.91
2022-11-24T06:39:42.530Z,99648.81
2022-11-24T06:42:11.649Z,99656.22
2022-11-24T06:44:39.373Z,99666.09
2022-11-24T06:47:07.077Z,99664.31
2022-11-24T06:49:34.832Z,99671.25
2022-11-24T06:52:02.685Z,99669.16
2022-11-24T06:54:30.431Z,99674.75
2022-11-24T06:56:58.786Z,99687.09
2022-11-24T06:59:28.210Z,99684.44
2022-11-24T07:01:56.085Z,99683.47
2022-11-24T07:04:23.815Z,99686.09
2022-11-24T07:06:51.521Z,99700.91
2022-11-24T07:09:19.249Z,99698.13
2022-11-24T07:11:46.953Z,99701.22
2022-11-24T07:14:14.639Z,99704.19
2022-11-24T07:16:43.851Z,99707.31
2022-11-24T07:19:11.971Z,99710.44
2022-11-24T07:21:39.709Z,99706.00
2022-11-24T07:24:08.683Z,99714.22
2022-11-24T07:26:37.416Z,99727.56
2022-11-24T07:29:06.012Z,99720.31
2022-11-24T07:31:33.884Z,99725.22
2022-11-24T07:34:03.057Z,99730.00
2022-11-24T07:36:30.888Z,99735.75
2022-11-24T07:38:58.805Z,99734.94
2022-11-24T07:41:26.825Z,99735.44
2022-11-24T07:43:54.557Z,99739.91
2022-11-24T07:46:22.302Z,99746.16
2022-11-24T07:48:50.023Z,99747.53
2022-11-24T07:51:19.064Z,99750.31
2022-11-24T07:53:47.073Z,99755.94
2022-11-24T07:56:14.926Z,99761.03
2022-11-24T07:58:42.706Z,99745.41
2022-11-24T08:01:12.855Z,99751.16
2022-11-24T08:03:40.953Z,99745.22
2022-11-24T08:06:24.487Z,99763.81
2022-11-24T08:08:55.669Z,99759.03
2022-11-24T08:11:24.236Z,99759.03
2022-11-24T08:13:52.042Z,99761.81
2022-11-24T08:16:21.285Z,99760.84
2022-11-24T08:18:51.702Z,99761.50
2022-11-24T08:21:19.929Z,99768.09
2022-11-24T08:23:47.836Z,99776.66
2022-11-24T08:26:19.282Z,99776.50
2022-11-24T08:28:48.686Z,99776.97
2022-11-24T08:31:19.546Z,99786.69
2022-11-24T08:33:47.762Z,99788.19
2022-11-24T08:36:17.547Z,99784.06
2022-11-24T08:38:46.160Z,99782.09
2022-11-24T08:41:15.735Z,99788.66
2022-11-24T08:43:44.855Z,99794.75
2022-11-24T08:46:17.110Z,99796.88
2022-11-24T08:48:45.592Z,99800.78
2022-11-24T08:51:15.781Z,99804.25
2022-11-24T08:53:44.121Z,99804.38
2022-11-24T08:56:13.941Z,99810.47
2022-11-24T08:58:41.842Z,99817.38
2022-11-24T09:01:12.796Z,99812.56
2022-11-24T09:03:48.216Z,99826.53
2022-11-24T09:06:18.212Z,99808.91
2022-11-24T09:08:45.985Z,99819.69
2022-11-24T09:11:15.545Z,99821.75
2022-11-24T09:13:43.848Z,99828.81
2022-11-24T09:16:14.788Z,99830.97
2022-11-24T09:18:42.950Z,99828.28
2022-11-24T09:21:12.835Z,99836.59
2022-11-24T09:23:41.030Z,99839.69
2022-11-24T09:26:10.847Z,99840.31
2022-11-24T09:28:38.557Z,99846.53
2022-11-24T09:31:08.776Z,99839.84
2022-11-24T09:33:38.520Z,99846.41
2022-11-24T09:36:07.256Z,99855.94
2022-11-24T09:38:35.284Z,99850.03
2022-11-24T09:41:33.623Z,99854.81
2022-11-24T09:44:08.459Z,99857.34
2022-11-24T09:46:43.459Z,99860.34
2022-11-24T09:49:17.987Z,99858.97
2022-11-24T09:51:52.307Z,99862.16
2022-11-24T09:54:25.093Z,99866.91
2022-11-24T09:56:53.706Z,99865.28
2022-11-24T09:59:23.460Z,99865.44
2022-11-24T10:01:55.763Z,99871.91
2022-11-24T10:04:35.194Z,99873.88
2022-11-24T10:07:14.324Z,99875.91
2022-11-24T10:09:54.355Z,99886.81
2022-11-24T10:12:35.351Z,99884.34
2022-11-24T10:15:37.429Z,99894.63
2022-11-24T10:18:34.891Z,99889.88
2022-11-24T10:21:15.807Z,99882.47
2022-11-24T10:23:57.221Z,99889.28
2022-11-24T10:26:35.195Z,99895.72
2022-11-24T10:29:09.824Z,99905.19
2022-11-24T10:31:41.726Z,99902.38
2022-11-24T10:34:15.916Z,99904.34
2022-11-24T10:36:51.652Z,99915.25
2022-11-24T10:39:25.509Z,99918.38
2022-11-24T10:42:00.270Z,99913.94
2022-11-24T10:44:27.967Z,99916.53
2022-11-24T10:46:55.896Z,99921.22
2022-11-24T10:49:28.018Z,99915.59
2022-11-24T10:52:07.635Z,99918.88
2022-11-24T10:54:36.812Z,99915.00
2022-11-24T10:57:04.539Z,99923.00
2022-11-24T10:59:38.378Z,99921.63
2022-11-24T11:02:28.979Z,99919.59
2022-11-24T11:04:56.821Z,99928.28
2022-11-24T11:07:27.348Z,99927.72
2022-11-24T11:10:19.479Z,99931.00
2022-11-24T11:12:47.424Z,99920.50
2022-11-24T11:15:24.440Z,99929.09
2022-11-24T11:17:57.242Z,99929.44
2022-11-24T11:20:29.972Z,99928.44
2022-11-24T11:23:01.389Z,99931.00
2022-11-24T11:25:33.476Z,99942.09
2022-11-24T11:28:22.784Z,99937.47
2022-11-24T11:34:07.217Z,99949.16
2022-11-24T11:36:41.997Z,99957.38
2022-11-24T11:39:21.272Z,99957.44
2022-11-24T11:41:52.822Z,99960.28
2022-11-24T11:44:31.121Z,99957.66
2022-11-24T11:47:00.982Z,99964.16
2022-11-24T11:49:28.774Z,99960.25
2022-11-24T11:52:30.371Z,99966.78
2022-11-24T11:55:29.366Z,99973.13
2022-11-24T11:58:08.293Z,99976.41
2022-11-24T12:00:39.836Z,99985.81
2022-11-24T12:03:39.773Z,99989.38
2022-11-24T12:06:21.182Z,99988.94
2022-11-24T12:12:01.767Z,99997.81
2022-11-24T12:14:40.247Z,100015.97
2022-11-24T12:17:20.594Z,100011.78
2022-11-24T12:20:07.388Z,100012.03
2022-11-24T12:22:43.615Z,100013.44
2022-11-24T12:25:26.452Z,100017.16
2022-11-24T12:28:06.959Z,100019.69
2022-11-24T12:30:42.939Z,100024.44
2022-11-24T12:33:30.448Z,100017.91
2022-11-24T12:36:04.400Z,100024.38
2022-11-24T12:38:47.830Z,100029.31
2022-11-24T12:41:42.124Z,100031.41
2022-11-24T12:44:30.525Z,100033.06
2022-11-24T12:47:10.974Z,100026.47
2022-11-24T12:49:46.945Z,100029.78
2022-11-24T12:52:22.807Z,100020.50
2022-11-24T12:54:50.566Z,100019.97
2022-11-24T12:57:23.498Z,100022.28
2022-11-24T12:59:58.883Z,100015.94
2022-11-24T13:02:34.757Z,100016.78
2022-11-24T13:05:15.083Z,100018.47
2022-11-24T13:07:47.398Z,100024.41
2022-11-24T13:13:21.130Z,100042.38
2022-11-24T13:19:10.126Z,100047.16
2022-11-24T13:22:00.982Z,100051.63
2022-11-24T13:24:31.648Z,100046.63
2022-11-24T13:27:27.109Z,100042.97
2022-11-24T13:29:55.778Z,100048.59
2022-11-24T13:33:00.193Z,100048.09
2022-11-24T13:35:28.219Z,100055.50
2022-11-24T13:37:56.002Z,100048.22
2022-11-24T13:40:49.831Z,100051.84
2022-11-24T13:43:27.730Z,100051.38
2022-11-24T13:45:55.579Z,100053.28
2022-11-24T13:49:00.917Z,100057.81
2022-11-24T13:51:28.939Z,100061.34
2022-11-24T13:54:00.752Z,100057.97
2022-11-24T13:56:31.413Z,100062.84
2022-11-24T13:59:15.591Z,100067.19
2022-11-24T14:01:44.741Z,100070.88
2022-11-24T14:04:35.022Z,100064.44
2022-11-24T14:07:08.161Z,100061.31
2022-11-24T14:09:41.801Z,100068.41
2022-11-24T14:12:15.137Z,100070.72
2022-11-24T14:14:44.333Z,100071.06
2022-11-24T14:17:18.824Z,100059.88
2022-11-24T14:19:49.670Z,100059.91
2022-11-24T14:22:19.990Z,100061.91
2022-11-24T14:24:53.687Z,100067.72
2022-11-24T14:27:27.065Z,100077.78
2022-11-24T14:29:56.425Z,100076.50
2022-11-24T14:32:24.643Z,100085.91
2022-11-24T14:34:54.637Z,100089.03
2022-11-24T14:37:22.860Z,100082.78
2022-11-24T14:39:50.758Z,100089.03
2022-11-24T14:42:21.315Z,100092.00
2022-11-24T14:44:52.804Z,100095.16
2022-11-24T14:47:31.228Z,100089.38
2022-11-24T14:50:09.800Z,100093.97
2022-11-24T14:52:44.471Z,100101.56
2022-11-24T14:55:25.465Z,100105.88
2022-11-24T14:57:53.395Z,100112.44
2022-11-24T15:00:28.387Z,100108.66
2022-11-24T15:03:09.352Z,100105.22
2022-11-24T15:05:56.913Z,100107.50
2022-11-24T15:08:26.317Z,100109.66
2022-11-24T15:10:59.592Z,100110.47
2022-11-24T15:13:27.589Z,100106.34
2022-11-24T15:16:02.358Z,100110.63
2022-11-24T15:18:37.573Z,100116.75
2022-11-24T15:21:07.299Z,100122.00
2022-11-24T15:23:36.252Z,100102.88
2022-11-24T15:26:30.762Z,100121.69
2022-11-24T15:28:59.190Z,100124.00
2022-11-24T15:31:27.093Z,100124.47
2022-11-24T15:33:54.968Z,100128.91
2022-11-24T15:36:24.127Z,100124.47
2022-11-24T15:38:52.234Z,100131.06
2022-11-24T15:41:22.650Z,100126.13
2022-11-24T15:43:50.432Z,100131.72
2022-11-24T15:46:18.197Z,100130.44
2022-11-24T15:48:46.157Z,100139.31
2022-11-24T15:51:15.341Z,100128.91
2022-11-24T15:53:47.523Z,100138.25
2022-11-24T15:56:20.128Z,100140.19
2022-11-24T15:58:48.445Z,100145.09
2022-11-24T16:01:16.247Z,100140.75
2022-11-24T16:03:47.575Z,100146.94
2022-11-24T16:06:24.049Z,100148.78
2022-11-24T16:08:54.790Z,100152.34
2022-11-24T16:11:22.736Z,100155.69
2022-11-24T16:13:53.234Z,100163.16
2022-11-24T16:16:22.969Z,100166.28
2022-11-24T16:18:51.008Z,100169.31
2022-11-24T16:21:18.747Z,100172.34
2022-11-24T16:23:47.775Z,100160.91
2022-11-24T16:26:16.952Z,100165.41
2022-11-24T16:28:45.767Z,100166.31
2022-11-24T16:31:15.632Z,100169.97
2022-11-24T16:33:44.689Z,100166.56
2022-11-24T16:36:12.952Z,100169.78
2022-11-24T16:38:40.688Z,100175.34
2022-11-24T16:41:10.436Z,100171.88
2022-11-24T16:43:39.870Z,100173.81
2022-11-24T16:46:18.769Z,100178.63
2022-11-24T16:48:47.407Z,100171.16
2022-11-24T16:51:15.804Z,100175.66
2022-11-24T16:53:44.308Z,100178.13
2022-11-24T16:56:12.507Z,100187.16
2022-11-24T16:58:42.464Z,100180.53
2022-11-24T17:01:12.468Z,100176.69
2022-11-24T17:03:40.954Z,100179.44
2022-11-24T17:06:11.487Z,100186.00
2022-11-24T17:08:41.383Z,100183.94
2022-11-24T17:11:09.786Z,100178.41
2022-11-24T17:13:38.017Z,100180.63
2022-11-24T17:16:09.036Z,100178.59
2022-11-24T17:18:38.483Z,100178.06
2022-11-24T17:21:09.686Z,100178.34
2022-11-24T17:23:38.697Z,100180.28
2022-11-24T17:26:07.993Z,100184.84
2022-11-24T17:28:36.026Z,100181.97
2022-11-24T17:31:08.864Z,100179.63
2022-11-24T17:33:37.064Z,100187.94
2022-11-24T17:36:06.038Z,100186.00
2022-11-24T17:38:35.109Z,100185.47
2022-11-24T17:41:03.131Z,100184.09
2022-11-24T17:43:30.903Z,100185.50
2022-11-24T17:46:00.787Z,100197.13
2022-11-24T17:48:30.770Z,100194.06
2022-11-24T17:51:03.226Z,100188.81
2022-11-24T17:53:31.614Z,100192.72
2022-11-24T17:56:02.531Z,100189.25
2022-11-24T17:58:31.449Z,100195.19
2022-11-24T18:00:59.349Z,100192.59
2022-11-24T18:03:28.794Z,100188.28
2022-11-24T18:05:57.979Z,100191.06
2022-11-24T18:08:25.808Z,100198.66
2022-11-24T18:10:53.495Z,100213.56
2022-11-24T18:13:41.010Z,100197.25
2022-11-24T18:16:11.494Z,100185.81
2022-11-24T18:18:40.441Z,100203.09
2022-11-24T18:21:14.109Z,100207.09
2022-11-24T18:23:43.676Z,100204.59
2022-11-24T18:26:14.778Z,100201.59
2022-11-24T18:28:43.449Z,100201.00
2022-11-24T18:31:13.764Z,100201.28
2022-11-24T18:33:43.225Z,100198.13
2022-11-24T18:36:15.225Z,100203.63
2022-11-24T18:38:43.668Z,100190.81
2022-11-24T18:41:12.786Z,100199.91
2022-11-24T18:43:40.895Z,100195.78
2022-11-24T18:46:11.496Z,100187.47
2022-11-24T18:48:39.370Z,100201.41
2022-11-24T18:51:08.380Z,100200.88
2022-11-24T18:53:37.506Z,100203.63
2022-11-24T18:56:06.635Z,100197.69
2022-11-24T18:58:36.358Z,100198.78
2022-11-24T19:01:08.674Z,100199.22
2022-11-24T19:03:42.362Z,100203.91
2022-11-24T19:06:15.724Z,100193.81
2022-11-24T19:08:45.338Z,100204.88
2022-11-24T19:11:18.462Z,100208.59
2022-11-24T19:13:47.551Z,100201.53
2022-11-24T19:16:15.640Z,100208.44
2022-11-24T19:18:46.488Z,100211.06
2022-11-24T19:21:18.212Z,100207.50
2022-11-24T19:23:47.442Z,100206.25
2022-11-24T19:26:16.244Z,100211.22
2022-11-24T19:28:43.939Z,100207.66
2022-11-24T19:31:13.658Z,100209.84
2022-11-24T19:33:41.749Z,100213.16
2022-11-24T19:36:12.754Z,100213.84
2022-11-24T19:38:41.888Z,100220.59
2022-11-24T19:41:13.065Z,100217.97
2022-11-24T19:43:41.723Z,100228.22
2022-11-24T19:46:10.948Z,100230.53
2022-11-24T19:48:40.173Z,100226.97
2022-11-24T19:51:09.689Z,100236.34
2022-11-24T19:53:37.934Z,100235.41
2022-11-24T19:56:06.840Z,100238.97
2022-11-24T19:58:37.486Z,100237.84
2022-11-24T20:01:10.048Z,100245.47
2022-11-24T20:03:39.082Z,100253.75
2022-11-24T20:06:07.676Z,100248.50
2022-11-24T20:08:36.897Z,100256.22
2022-11-24T20:11:05.681Z,100249.88
2022-11-24T20:13:37.242Z,100254.84
2022-11-24T20:16:06.103Z,100253.63
2022-11-24T20:18:38.912Z,100252.22
2022-11-24T20:21:10.905Z,100246.72
2022-11-24T20:23:39.524Z,100256.09
2022-11-24T20:26:09.218Z,100257.63
2022-11-24T20:28:38.671Z,100260.09
2022-11-24T20:31:08.469Z,100267.84
2022-11-24T20:33:37.287Z,100258.44
2022-11-24T20:36:06.700Z,100261.91
2022-11-24T20:38:35.429Z,100264.53
2022-11-24T20:41:09.053Z,100263.81
2022-11-24T20:43:39.145Z,100266.75
2022-11-24T20:46:09.612Z,100264.25
2022-11-24T20:48:37.912Z,100254.03
2022-11-24T20:51:06.669Z,100265.47
2022-11-24T20:53:35.015Z,100255.28
2022-11-24T20:56:06.097Z,100261.63
2022-11-24T20:58:35.089Z,100261.50
2022-11-24T21:01:09.894Z,100256.94
2022-11-24T21:03:43.007Z,100264.53
2022-11-24T21:06:12.662Z,100262.19
2022-11-24T21:08:42.273Z,100268.63
2022-11-24T21:11:11.457Z,100261.06
2022-11-24T21:13:40.871Z,100260.38
2022-11-24T21:16:18.188Z,100260.66
2022-11-24T21:18:47.249Z,100254.97
2022-11-24T21:21:15.779Z,100259.53
2022-11-24T21:23:44.986Z,100259.69
2022-11-24T21:26:16.829Z,100261.03
2022-11-24T21:28:46.422Z,100259.53
2022-11-24T21:31:18.757Z,100261.69
2022-11-24T21:33:48.144Z,100261.84
2022-11-24T21:36:17.892Z,100260.47
2022-11-24T21:38:51.142Z,100257.72
2022-11-24T21:41:19.325Z,100259.50
2022-11-24T21:43:47.217Z,100259.78
2022-11-24T21:46:15.313Z,100256.34
2022-11-24T21:48:44.926Z,100253.97
2022-11-24T21:51:15.547Z,100261.56
2022-11-24T21:53:44.436Z,100260.03
2022-11-24T21:56:13.672Z,100252.88
2022-11-24T21:58:47.095Z,100260.75
2022-11-24T22:01:16.250Z,100258.25
2022-11-24T22:03:46.042Z,100251.59
2022-11-24T22:06:14.177Z,100256.19
2022-11-24T22:08:41.862Z,100260.84
2022-11-24T22:11:12.993Z,100262.91
2022-11-24T22:13:41.373Z,100253.78
2022-11-24T22:16:11.332Z,100251.44
2022-11-24T22:18:40.825Z,100256.94
2022-11-24T22:21:13.279Z,100235.25
2022-11-24T22:23:41.339Z,100244.38
2022-11-24T22:26:12.253Z,100252.22
2022-11-24T22:28:40.376Z,100255.25
2022-11-24T22:31:09.956Z,100251.81
2022-11-24T22:33:37.745Z,100247.25
2022-11-24T22:36:06.326Z,100237.75
2022-11-24T22:38:35.518Z,100242.84
2022-11-24T22:41:04.592Z,100242.84
2022-11-24T22:43:33.628Z,100242.00
2022-11-24T22:46:05.790Z,100242.00
2022-11-24T22:48:33.727Z,100240.22
2022-11-24T22:51:03.188Z,100239.53
2022-11-24T22:53:31.340Z,100235.13
2022-11-24T22:56:03.688Z,100247.25
2022-11-24T22:58:32.016Z,100235.13
2022-11-24T23:01:06.035Z,100239.53
2022-11-24T23:03:34.438Z,100219.78
2022-11-24T23:06:02.700Z,100231.53
2022-11-24T23:08:32.846Z,100232.34
2022-11-24T23:11:03.017Z,100223.13
2022-11-24T23:13:30.930Z,100225.03
2022-11-24T23:16:02.611Z,100229.84
2022-11-24T23:18:30.776Z,100225.81
2022-11-24T23:21:04.449Z,100235.63
2022-11-24T23:23:32.195Z,100235.03
2022-11-24T23:26:02.287Z,100234.75
2022-11-24T23:28:30.038Z,100227.97
2022-11-24T23:31:01.651Z,100238.59
2022-11-24T23:33:29.391Z,100223.38
2022-11-24T23:35:57.147Z,100236.94
2022-11-24T23:38:28.548Z,100235.41
2022-11-24T23:40:56.360Z,100241.06
2022-11-24T23:43:25.455Z,100231.03
2022-11-24T23:45:53.285Z,100224.31
2022-11-24T23:48:21.167Z,100228.19
2022-11-24T23:50:48.936Z,100233.03
2022-11-24T23:53:16.681Z,100229.91
2022-11-24T23:55:44.809Z,100223.53
2022-11-24T23:58:12.834Z,100224.13
